createdAt,value
2023-05-13T00:00:45.222Z,95.00
2023-05-13T00:03:48.337Z,95.36
2023-05-13T00:06:51.588Z,94.77
2023-05-13T00:09:54.423Z,95.75
2023-05-13T00:12:57.107Z,96.39
2023-05-13T00:16:00.068Z,95.51
2023-05-13T00:19:02.979Z,94.67
2023-05-13T00:22:05.737Z,95.17
2023-05-13T00:25:08.907Z,96.56
2023-05-13T00:28:14.226Z,95.54
2023-05-13T00:31:17.146Z,96.18
2023-05-13T00:34:20.088Z,96.26
2023-05-13T00:37:23.005Z,96.71
2023-05-13T00:40:25.940Z,96.71
2023-05-13T00:43:29.526Z,96.30
2023-05-13T00:46:35.956Z,97.00
2023-05-13T00:49:39.033Z,97.27
2023-05-13T00:52:42.965Z,98.27
2023-05-13T00:55:46.542Z,96.21
2023-05-13T00:58:50.102Z,96.91
2023-05-13T01:02:35.031Z,97.23
2023-05-13T01:05:40.983Z,97.55
2023-05-13T01:08:56.798Z,97.81
2023-05-13T01:12:08.814Z,97.09
2023-05-13T01:15:16.398Z,97.49
2023-05-13T01:18:27.483Z,97.24
2023-05-13T01:21:36.412Z,97.77
2023-05-13T01:24:39.343Z,98.54
2023-05-13T01:27:42.254Z,99.22
2023-05-13T01:30:48.017Z,99.95
2023-05-13T01:33:51.522Z,100.00
2023-05-13T01:36:54.997Z,100.00
2023-05-13T01:39:58.735Z,100.00
2023-05-13T01:43:02.029Z,100.00
2023-05-13T01:46:12.289Z,100.00
2023-05-13T01:49:15.218Z,99.95
2023-05-13T01:52:18.041Z,100.00
2023-05-13T01:55:21.236Z,100.00
2023-05-13T01:58:25.092Z,100.00
2023-05-13T02:01:27.972Z,100.00
2023-05-13T02:04:30.836Z,100.00
2023-05-13T02:07:34.568Z,100.00
2023-05-13T02:10:37.377Z,100.00
2023-05-13T02:13:40.246Z,100.00
2023-05-13T02:16:43.500Z,100.00
2023-05-13T02:19:46.322Z,100.00
2023-05-13T02:22:49.096Z,100.00
2023-05-13T02:25:51.969Z,100.00
2023-05-13T02:28:54.818Z,100.00
2023-05-13T02:31:57.740Z,100.00
2023-05-13T02:35:00.782Z,100.00
2023-05-13T02:38:04.532Z,100.00
2023-05-13T02:41:09.429Z,100.00
2023-05-13T02:44:12.222Z,100.00
2023-05-13T02:47:15.041Z,100.00
2023-05-13T02:50:18.108Z,100.00
2023-05-13T02:53:20.992Z,100.00
2023-05-13T02:56:29.208Z,100.00
2023-05-13T02:59:32.032Z,100.00
2023-05-13T03:02:35.513Z,100.00
2023-05-13T03:05:38.400Z,100.00
2023-05-13T03:08:41.146Z,100.00
2023-05-13T03:11:43.926Z,100.00
2023-05-13T03:14:46.808Z,100.00
2023-05-13T03:17:49.543Z,100.00
2023-05-13T03:20:54.176Z,100.00
2023-05-13T03:23:58.442Z,100.00
2023-05-13T03:27:01.469Z,100.00
2023-05-13T03:30:06.172Z,100.00
2023-05-13T03:33:14.383Z,100.00
2023-05-13T03:36:17.229Z,100.00
2023-05-13T03:39:20.161Z,100.00
2023-05-13T03:42:23.791Z,100.00
2023-05-13T03:45:27.533Z,100.00
2023-05-13T03:48:33.781Z,100.00
2023-05-13T03:51:38.178Z,100.00
2023-05-13T03:54:41.967Z,100.00
2023-05-13T03:57:49.020Z,100.00
2023-05-13T04:00:54.152Z,100.00
2023-05-13T04:03:56.933Z,100.00
2023-05-13T04:06:59.773Z,100.00
2023-05-13T04:10:02.672Z,100.00
2023-05-13T04:13:06.407Z,100.00
2023-05-13T04:16:09.112Z,100.00
2023-05-13T04:19:11.917Z,100.00
2023-05-13T04:22:14.672Z,100.00
2023-05-13T04:25:17.700Z,100.00
2023-05-13T04:28:20.980Z,100.00
2023-05-13T04:31:25.472Z,100.00
2023-05-13T04:34:28.322Z,100.00
2023-05-13T04:37:31.371Z,100.00
2023-05-13T04:40:38.366Z,99.54
2023-05-13T04:43:45.181Z,98.27
2023-05-13T04:46:48.510Z,97.74
2023-05-13T04:49:51.360Z,97.97
2023-05-13T04:52:56.530Z,97.03
2023-05-13T04:56:01.146Z,98.11
2023-05-13T04:59:05.611Z,97.10
2023-05-13T05:02:08.424Z,92.85
2023-05-13T05:05:11.425Z,93.42
2023-05-13T05:08:14.300Z,92.26
2023-05-13T05:11:17.079Z,92.11
2023-05-13T05:14:20.400Z,92.76
2023-05-13T05:17:25.464Z,89.07
2023-05-13T05:20:28.476Z,87.81
2023-05-13T05:23:34.308Z,85.70
2023-05-13T05:26:37.238Z,85.71
2023-05-13T05:29:42.130Z,86.81
2023-05-13T05:32:45.149Z,87.39
2023-05-13T05:35:49.077Z,88.43
2023-05-13T05:38:53.834Z,89.67
2023-05-13T05:41:58.800Z,90.04
2023-05-13T05:45:01.700Z,89.87
2023-05-13T05:48:05.916Z,88.91
2023-05-13T05:51:08.989Z,87.53
2023-05-13T05:54:12.529Z,86.15
2023-05-13T05:57:15.691Z,86.46
2023-05-13T06:00:19.180Z,86.76
2023-05-13T06:03:22.120Z,86.82
2023-05-13T06:06:25.471Z,87.32
2023-05-13T06:09:28.230Z,86.78
2023-05-13T06:12:31.282Z,86.82
2023-05-13T06:15:34.125Z,82.91
2023-05-13T06:18:36.983Z,83.17
2023-05-13T06:21:39.785Z,83.62
2023-05-13T06:24:44.850Z,82.57
2023-05-13T06:27:49.346Z,84.51
2023-05-13T06:30:56.822Z,83.21
2023-05-13T06:33:59.751Z,80.79
2023-05-13T06:37:02.477Z,79.68
2023-05-13T06:40:06.218Z,78.85
2023-05-13T06:43:16.566Z,80.64
2023-05-13T06:46:23.738Z,78.32
2023-05-13T06:49:26.583Z,78.32
2023-05-13T06:52:31.529Z,76.26
2023-05-13T06:55:41.673Z,77.94
2023-05-13T06:58:44.712Z,73.99
2023-05-13T07:01:47.479Z,73.87
2023-05-13T07:04:50.196Z,75.71
2023-05-13T07:07:53.910Z,71.67
2023-05-13T07:10:56.691Z,68.65
2023-05-13T07:13:59.411Z,69.59
2023-05-13T07:17:02.390Z,69.71
2023-05-13T07:20:06.569Z,71.04
2023-05-13T07:23:09.345Z,71.36
2023-05-13T07:26:12.398Z,71.80
2023-05-13T07:29:15.161Z,70.81
2023-05-13T07:32:18.157Z,72.99
2023-05-13T07:35:21.247Z,74.00
2023-05-13T07:38:24.198Z,75.87
2023-05-13T07:41:27.830Z,75.94
2023-05-13T07:44:30.879Z,74.72
2023-05-13T07:47:34.065Z,74.21
2023-05-13T07:50:36.841Z,71.79
2023-05-13T07:53:39.886Z,70.74
2023-05-13T07:56:44.471Z,70.46
2023-05-13T07:59:47.157Z,72.31
2023-05-13T08:02:50.017Z,71.58
2023-05-13T08:05:52.837Z,72.66
2023-05-13T08:08:55.644Z,73.51
2023-05-13T08:11:58.413Z,73.17
2023-05-13T08:15:04.011Z,70.99
2023-05-13T08:18:06.837Z,73.04
2023-05-13T08:21:09.597Z,72.52
2023-05-13T08:24:12.586Z,69.22
2023-05-13T08:27:15.290Z,70.57
2023-05-13T08:30:18.350Z,72.00
2023-05-13T08:33:21.330Z,69.82
2023-05-13T08:36:26.051Z,68.45
2023-05-13T08:39:29.156Z,65.49
2023-05-13T08:42:33.720Z,64.79
2023-05-13T08:45:37.806Z,64.32
2023-05-13T08:48:42.325Z,61.43
2023-05-13T08:51:45.481Z,61.48
2023-05-13T08:54:48.987Z,62.55
2023-05-13T08:57:52.217Z,64.34
2023-05-13T09:00:55.410Z,65.63
2023-05-13T09:04:01.576Z,66.62
2023-05-13T09:07:08.012Z,63.96
2023-05-13T09:10:11.366Z,63.41
2023-05-13T09:13:14.595Z,65.85
2023-05-13T09:16:17.378Z,67.17
2023-05-13T09:19:20.317Z,63.94
2023-05-13T09:22:23.084Z,62.88
2023-05-13T09:25:27.226Z,63.38
2023-05-13T09:28:30.048Z,63.18
2023-05-13T09:31:33.887Z,67.67
2023-05-13T09:34:36.724Z,66.75
2023-05-13T09:37:39.604Z,68.90
2023-05-13T09:40:50.056Z,72.60
2023-05-13T09:43:52.922Z,73.15
2023-05-13T09:46:55.782Z,73.35
2023-05-13T09:50:02.855Z,70.72
2023-05-13T09:53:14.864Z,71.55
2023-05-13T09:56:22.352Z,70.62
2023-05-13T09:59:25.159Z,70.12
2023-05-13T10:02:29.188Z,70.70
2023-05-13T10:05:34.983Z,71.50
2023-05-13T10:08:39.176Z,71.61
2023-05-13T10:11:46.486Z,69.17
2023-05-13T10:14:52.214Z,66.64
2023-05-13T10:17:55.278Z,68.75
2023-05-13T10:20:58.718Z,70.28
2023-05-13T10:24:02.088Z,70.70
2023-05-13T10:27:06.738Z,70.69
2023-05-13T10:30:10.772Z,70.95
2023-05-13T10:33:14.201Z,74.00
2023-05-13T10:36:27.238Z,74.20
2023-05-13T10:39:38.660Z,74.45
2023-05-13T10:42:47.997Z,74.52
2023-05-13T10:45:56.735Z,71.64
2023-05-13T10:49:00.510Z,71.34
2023-05-13T10:52:14.128Z,71.27
2023-05-13T10:55:20.529Z,72.92
2023-05-13T10:58:30.261Z,71.34
2023-05-13T11:01:44.245Z,70.21
2023-05-13T11:05:00.457Z,68.15
2023-05-13T11:08:03.517Z,69.42
2023-05-13T11:11:21.499Z,72.15
2023-05-13T11:14:26.265Z,73.23
2023-05-13T11:17:31.319Z,72.10
2023-05-13T11:20:51.228Z,70.46
2023-05-13T11:24:06.585Z,69.41
2023-05-13T11:27:21.635Z,68.21
2023-05-13T11:30:27.145Z,67.74
2023-05-13T11:34:11.539Z,67.48
2023-05-13T11:37:14.373Z,68.12
2023-05-13T11:40:34.194Z,66.22
2023-05-13T11:43:39.534Z,67.72
2023-05-13T11:46:59.399Z,66.01
2023-05-13T11:50:02.149Z,66.86
2023-05-13T11:53:05.219Z,67.14
2023-05-13T11:56:11.360Z,66.88
2023-05-13T11:59:15.317Z,68.29
2023-05-13T12:02:22.019Z,67.91
2023-05-13T12:05:25.540Z,64.79
2023-05-13T12:08:28.637Z,64.65
2023-05-13T12:11:31.781Z,65.97
2023-05-13T12:14:34.869Z,61.07
2023-05-13T12:17:38.052Z,63.22
2023-05-13T12:21:17.963Z,59.03
2023-05-13T12:24:21.810Z,58.38
2023-05-13T12:27:24.635Z,54.97
2023-05-13T12:30:34.341Z,51.68
2023-05-13T12:33:47.042Z,51.87
2023-05-13T12:36:49.957Z,56.82
2023-05-13T12:40:10.284Z,56.50
2023-05-13T12:43:13.875Z,55.67
2023-05-13T12:46:16.694Z,57.32
2023-05-13T12:49:19.496Z,57.11
2023-05-13T12:52:22.570Z,57.96
2023-05-13T12:55:27.376Z,57.65
2023-05-13T12:58:30.144Z,57.02
2023-05-13T13:01:33.295Z,61.59
2023-05-13T13:04:36.095Z,61.81
2023-05-13T13:07:38.929Z,60.60
2023-05-13T13:10:41.794Z,58.66
2023-05-13T13:13:45.254Z,56.44
2023-05-13T13:16:48.130Z,54.98
2023-05-13T13:19:51.003Z,54.28
2023-05-13T13:22:54.886Z,50.35
2023-05-13T13:25:59.421Z,49.21
2023-05-13T13:29:02.245Z,52.76
2023-05-13T13:32:05.370Z,52.72
2023-05-13T13:35:08.472Z,57.96
2023-05-13T13:38:11.544Z,58.56
2023-05-13T13:41:14.362Z,59.92
2023-05-13T13:44:17.137Z,58.21
2023-05-13T13:47:19.970Z,56.48
2023-05-13T13:54:18.979Z,55.77
2023-05-13T13:57:24.415Z,55.61
2023-05-13T14:00:27.164Z,58.01
2023-05-13T14:03:30.190Z,55.01
2023-05-13T14:06:32.986Z,57.63
2023-05-13T14:09:35.709Z,55.60
2023-05-13T14:12:38.599Z,57.90
2023-05-13T14:15:41.334Z,58.45
2023-05-13T14:18:44.539Z,58.20
2023-05-13T14:21:47.358Z,56.30
2023-05-13T14:24:52.204Z,54.54
2023-05-13T14:27:54.995Z,54.88
2023-05-13T14:30:57.790Z,54.55
2023-05-13T14:34:00.582Z,55.64
2023-05-13T14:37:03.485Z,55.42
2023-05-13T14:40:07.316Z,56.78
2023-05-13T14:43:10.228Z,55.90
2023-05-13T14:46:13.413Z,56.78
2023-05-13T14:49:16.306Z,57.11
2023-05-13T14:52:19.069Z,55.28
2023-05-13T14:55:21.824Z,55.68
2023-05-13T14:58:24.952Z,55.50
2023-05-13T15:01:27.850Z,54.90
2023-05-13T15:04:30.968Z,55.88
2023-05-13T15:07:33.812Z,54.71
2023-05-13T15:10:36.534Z,54.31
2023-05-13T15:13:39.632Z,56.39
2023-05-13T15:16:42.394Z,56.85
2023-05-13T15:19:45.244Z,57.13
2023-05-13T15:22:48.005Z,57.33
2023-05-13T15:25:51.620Z,58.45
2023-05-13T15:28:54.424Z,58.53
2023-05-13T15:31:57.166Z,58.92
2023-05-13T15:34:59.874Z,59.00
2023-05-13T15:38:03.666Z,58.15
2023-05-13T15:41:06.480Z,58.79
2023-05-13T15:44:09.277Z,57.96
2023-05-13T15:47:12.273Z,59.61
2023-05-13T15:50:15.150Z,58.68
2023-05-13T15:53:17.932Z,59.58
2023-05-13T15:56:25.852Z,60.95
2023-05-13T15:59:28.586Z,60.82
2023-05-13T16:02:37.657Z,61.43
2023-05-13T16:05:40.462Z,61.83
2023-05-13T16:08:43.201Z,62.61
2023-05-13T16:11:46.007Z,64.07
2023-05-13T16:14:48.777Z,64.07
2023-05-13T16:17:51.555Z,64.00
2023-05-13T16:21:18.128Z,64.22
2023-05-13T16:24:37.030Z,64.64
2023-05-13T16:27:40.686Z,65.70
2023-05-13T16:31:13.290Z,66.04
2023-05-13T16:34:16.175Z,66.46
2023-05-13T16:37:19.080Z,66.10
2023-05-13T16:40:22.240Z,66.95
2023-05-13T16:43:25.064Z,66.62
2023-05-13T16:46:29.010Z,66.80
2023-05-13T16:49:31.794Z,66.43
2023-05-13T16:52:34.518Z,67.69
2023-05-13T16:55:37.277Z,67.44
2023-05-13T16:58:40.101Z,68.14
2023-05-13T17:01:42.891Z,69.48
2023-05-13T17:04:45.853Z,70.04
2023-05-13T17:07:48.592Z,71.03
2023-05-13T17:11:01.192Z,71.36
2023-05-13T17:14:06.264Z,71.94
2023-05-13T17:17:09.384Z,72.01
2023-05-13T17:20:12.468Z,72.65
2023-05-13T17:23:17.364Z,73.88
2023-05-13T17:26:22.094Z,77.55
2023-05-13T17:29:26.009Z,79.56
2023-05-13T17:32:31.548Z,80.05
2023-05-13T17:35:54.504Z,84.77
2023-05-13T17:38:57.277Z,87.93
2023-05-13T17:42:00.041Z,87.37
2023-05-13T17:45:03.836Z,91.25
2023-05-13T17:48:06.959Z,89.68
2023-05-13T17:51:11.538Z,91.40
2023-05-13T17:54:14.342Z,91.45
2023-05-13T17:57:17.312Z,92.77
2023-05-13T18:00:20.406Z,94.06
2023-05-13T18:03:23.626Z,94.94
2023-05-13T18:06:26.595Z,97.21
2023-05-13T18:09:29.538Z,100.00
2023-05-13T18:12:32.372Z,100.00
2023-05-13T18:15:35.256Z,100.00
2023-05-13T18:18:38.065Z,100.00
2023-05-13T18:21:40.949Z,100.00
2023-05-13T18:24:46.547Z,100.00
2023-05-13T18:27:50.618Z,100.00
2023-05-13T18:30:53.259Z,100.00
2023-05-13T18:33:55.985Z,100.00
2023-05-13T18:36:58.901Z,100.00
2023-05-13T18:40:02.260Z,100.00
2023-05-13T18:43:05.073Z,100.00
2023-05-13T18:46:07.905Z,100.00
2023-05-13T18:49:11.536Z,100.00
2023-05-13T18:52:14.265Z,100.00
2023-05-13T18:55:17.068Z,100.00
2023-05-13T18:58:19.803Z,100.00
2023-05-13T19:01:22.781Z,100.00
2023-05-13T19:04:26.126Z,100.00
2023-05-13T19:07:29.121Z,100.00
2023-05-13T19:10:39.153Z,100.00
2023-05-13T19:13:47.376Z,100.00
2023-05-13T19:16:51.023Z,100.00
2023-05-13T19:19:53.796Z,100.00
2023-05-13T19:22:56.681Z,100.00
2023-05-13T19:25:59.593Z,100.00
2023-05-13T19:29:02.881Z,100.00
2023-05-13T19:32:06.398Z,100.00
2023-05-13T19:35:09.733Z,100.00
2023-05-13T19:38:12.614Z,100.00
2023-05-13T19:41:15.417Z,100.00
2023-05-13T19:44:18.288Z,100.00
2023-05-13T19:47:21.085Z,100.00
2023-05-13T19:50:24.153Z,100.00
2023-05-13T19:53:27.341Z,100.00
2023-05-13T19:56:30.701Z,100.00
2023-05-13T19:59:33.430Z,100.00
2023-05-13T20:02:36.298Z,100.00
2023-05-13T20:05:41.311Z,100.00
2023-05-13T20:08:44.006Z,100.00
2023-05-13T20:11:46.821Z,100.00
2023-05-13T20:14:58.903Z,100.00
2023-05-13T20:18:01.638Z,100.00
2023-05-13T20:21:04.643Z,100.00
2023-05-13T20:24:07.516Z,100.00
2023-05-13T20:27:10.428Z,100.00
2023-05-13T20:30:13.813Z,100.00
2023-05-13T20:33:16.569Z,100.00
2023-05-13T20:36:19.292Z,100.00
2023-05-13T20:39:22.238Z,100.00
2023-05-13T20:42:25.569Z,100.00
2023-05-13T20:45:28.735Z,100.00
2023-05-13T20:48:33.126Z,100.00
2023-05-13T20:51:35.840Z,100.00
2023-05-13T20:54:38.992Z,100.00
2023-05-13T20:57:42.070Z,100.00
2023-05-13T21:00:44.902Z,100.00
2023-05-13T21:03:50.080Z,100.00
2023-05-13T21:06:53.385Z,100.00
2023-05-13T21:09:56.138Z,100.00
2023-05-13T21:12:59.114Z,100.00
2023-05-13T21:16:05.561Z,100.00
2023-05-13T21:19:08.595Z,100.00
2023-05-13T21:22:11.355Z,100.00
2023-05-13T21:25:14.090Z,100.00
2023-05-13T21:28:18.717Z,100.00
2023-05-13T21:31:21.862Z,100.00
2023-05-13T21:34:24.652Z,100.00
2023-05-13T21:37:27.562Z,100.00
2023-05-13T21:40:30.301Z,100.00
2023-05-13T21:43:33.043Z,100.00
2023-05-13T21:46:36.342Z,100.00
2023-05-13T21:49:39.322Z,100.00
2023-05-13T21:52:42.206Z,100.00
2023-05-13T21:55:44.972Z,100.00
2023-05-13T21:58:50.042Z,100.00
2023-05-13T22:01:52.808Z,100.00
2023-05-13T22:04:55.552Z,100.00
2023-05-13T22:08:00.195Z,100.00
2023-05-13T22:11:03.162Z,100.00
2023-05-13T22:14:05.983Z,100.00
2023-05-13T22:17:10.313Z,100.00
2023-05-13T22:20:13.864Z,100.00
2023-05-13T22:23:16.552Z,100.00
2023-05-13T22:26:19.367Z,100.00
2023-05-13T22:29:22.214Z,100.00
2023-05-13T22:32:25.293Z,100.00
2023-05-13T22:35:32.248Z,100.00
2023-05-13T22:38:34.975Z,100.00
2023-05-13T22:41:37.791Z,100.00
2023-05-13T22:44:40.499Z,100.00
2023-05-13T22:47:48.288Z,100.00
2023-05-13T22:51:00.047Z,100.00
2023-05-13T22:54:02.928Z,100.00
2023-05-13T22:57:06.053Z,100.00
2023-05-13T23:00:09.387Z,100.00
2023-05-13T23:03:12.312Z,100.00
2023-05-13T23:06:15.153Z,100.00
2023-05-13T23:09:18.014Z,100.00
2023-05-13T23:12:20.784Z,100.00
2023-05-13T23:15:23.564Z,100.00
2023-05-13T23:18:26.371Z,100.00
2023-05-13T23:21:29.344Z,100.00
2023-05-13T23:24:32.262Z,100.00
2023-05-13T23:27:35.600Z,100.00
2023-05-13T23:30:38.375Z,100.00
2023-05-13T23:33:41.200Z,100.00
2023-05-13T23:36:43.992Z,100.00
2023-05-13T23:39:46.705Z,100.00
2023-05-13T23:42:49.455Z,100.00
2023-05-13T23:45:52.158Z,100.00
2023-05-13T23:48:55.173Z,100.00
2023-05-13T23:51:57.880Z,100.00
2023-05-13T23:55:03.689Z,100.00
2023-05-13T23:58:06.360Z,100.00
